Terminal Aerodrome Forecast
Issued by NWS Sterling, VA

Current Version | Previous Version | Graphics & Text | Print | Product List | Glossary On
Versions: 1 2 3 4 5 6 7 8 9 10 11 12 13 14 15 16 17 18 19 20 21 22 23 24 25
000
FTUS41 KLWX 300500
TAFDCA
TAF
KDCA 300540Z 3006/3106 20006KT P6SM BKN050
     FM300900 31010KT P6SM BKN050
     FM301200 31010G18KT P6SM SCT050 BKN100
     FM301400 31015G23KT P6SM BKN040
     FM302000 32023G35KT P6SM SCT040
     FM310400 31016G27KT P6SM FEW250=

USA.gov is the U.S. government's official web portal to all federal, state and local government web resources and services.